sensor_id;sensor_type;location;lat;lon;timestamp;temperature;humidity
1534;DHT22;760;48.822;9.304;2024-03-23T05:05:43;11.00;99.90
1534;DHT22;760;48.822;9.304;2024-03-23T05:08:09;11.00;99.90
1534;DHT22;760;48.822;9.304;2024-03-23T05:10:34;10.90;99.90
1534;DHT22;760;48.822;9.304;2024-03-23T05:13:00;10.80;99.90
1534;DHT22;760;48.822;9.304;2024-03-23T05:15:25;10.80;99.90
1534;DHT22;760;48.822;9.304;2024-03-23T05:17:51;10.90;99.90
1534;DHT22;760;48.822;9.304;2024-03-23T05:20:17;10.80;99.90
1534;DHT22;760;48.822;9.304;2024-03-23T05:22:43;10.80;99.90
1534;DHT22;760;48.822;9.304;2024-03-23T05:25:09;10.80;99.90
1534;DHT22;760;48.822;9.304;2024-03-23T05:27:35;10.80;99.90
1534;DHT22;760;48.822;9.304;2024-03-23T05:30:01;10.80;99.90
1534;DHT22;760;48.822;9.304;2024-03-23T05:32:27;10.90;99.90
1534;DHT22;760;48.822;9.304;2024-03-23T05:34:54;10.80;99.90
1534;DHT22;760;48.822;9.304;2024-03-23T05:37:22;10.80;99.90
1534;DHT22;760;48.822;9.304;2024-03-23T05:39:48;10.80;99.90
1534;DHT22;760;48.822;9.304;2024-03-23T05:42:18;10.70;99.90
1534;DHT22;760;48.822;9.304;2024-03-23T05:44:45;10.70;99.90
1534;DHT22;760;48.822;9.304;2024-03-23T05:47:11;10.70;99.90
1534;DHT22;760;48.822;9.304;2024-03-23T05:49:38;10.70;99.90
1534;DHT22;760;48.822;9.304;2024-03-23T05:52:03;10.70;99.90
1534;DHT22;760;48.822;9.304;2024-03-23T05:54:29;10.70;99.90
1534;DHT22;760;48.822;9.304;2024-03-23T05:56:55;10.70;99.90
1534;DHT22;760;48.822;9.304;2024-03-23T05:59:21;10.70;99.90
1534;DHT22;760;48.822;9.304;2024-03-23T06:01:47;10.60;99.90
1534;DHT22;760;48.822;9.304;2024-03-23T06:04:13;10.60;99.90
1534;DHT22;760;48.822;9.304;2024-03-23T06:06:39;10.60;99.90
1534;DHT22;760;48.822;9.304;2024-03-23T06:09:05;10.60;99.90
1534;DHT22;760;48.822;9.304;2024-03-23T06:11:30;10.60;99.90
1534;DHT22;760;48.822;9.304;2024-03-23T06:13:56;10.50;99.90
1534;DHT22;760;48.822;9.304;2024-03-23T06:16:23;10.50;99.90
1534;DHT22;760;48.822;9.304;2024-03-23T06:18:50;10.50;99.90
1534;DHT22;760;48.822;9.304;2024-03-23T06:21:16;10.50;99.90
1534;DHT22;760;48.822;9.304;2024-03-23T06:23:42;10.40;99.90
1534;DHT22;760;48.822;9.304;2024-03-23T06:26:08;10.40;99.90
1534;DHT22;760;48.822;9.304;2024-03-23T06:28:34;10.30;99.90
1534;DHT22;760;48.822;9.304;2024-03-23T06:30:59;10.30;99.90
1534;DHT22;760;48.822;9.304;2024-03-23T06:33:25;10.30;99.90
1534;DHT22;760;48.822;9.304;2024-03-23T06:35:51;10.20;99.90
1534;DHT22;760;48.822;9.304;2024-03-23T06:38:18;10.20;99.90
1534;DHT22;760;48.822;9.304;2024-03-23T06:40:43;10.20;99.90
1534;DHT22;760;48.822;9.304;2024-03-23T06:43:13;10.30;99.90
1534;DHT22;760;48.822;9.304;2024-03-23T06:45:39;10.20;99.90
1534;DHT22;760;48.822;9.304;2024-03-23T06:48:05;10.30;99.90
1534;DHT22;760;48.822;9.304;2024-03-23T06:50:33;10.20;99.90
1534;DHT22;760;48.822;9.304;2024-03-23T06:52:59;10.20;99.90
1534;DHT22;760;48.822;9.304;2024-03-23T06:55:25;10.20;99.90
1534;DHT22;760;48.822;9.304;2024-03-23T06:57:52;10.20;99.90
1534;DHT22;760;48.822;9.304;2024-03-23T07:00:18;10.20;99.90
1534;DHT22;760;48.822;9.304;2024-03-23T07:02:44;10.20;99.90
1534;DHT22;760;48.822;9.304;2024-03-23T07:05:10;10.10;99.90
1534;DHT22;760;48.822;9.304;2024-03-23T07:07:37;10.10;99.90
1534;DHT22;760;48.822;9.304;2024-03-23T07:10:03;10.10;99.90
1534;DHT22;760;48.822;9.304;2024-03-23T07:12:29;10.20;99.90
1534;DHT22;760;48.822;9.304;2024-03-23T07:14:54;10.20;99.90
1534;DHT22;760;48.822;9.304;2024-03-23T07:17:20;10.30;99.90
1534;DHT22;760;48.822;9.304;2024-03-23T07:19:46;10.30;99.90
1534;DHT22;760;48.822;9.304;2024-03-23T07:22:12;10.40;99.90
1534;DHT22;760;48.822;9.304;2024-03-23T07:24:38;10.40;99.90
1534;DHT22;760;48.822;9.304;2024-03-23T07:27:04;10.40;99.90
1534;DHT22;760;48.822;9.304;2024-03-23T07:29:30;10.50;99.90
1534;DHT22;760;48.822;9.304;2024-03-23T07:31:56;10.50;99.90
1534;DHT22;760;48.822;9.304;2024-03-23T07:34:21;10.50;99.90
1534;DHT22;760;48.822;9.304;2024-03-23T07:36:47;10.50;99.90
1534;DHT22;760;48.822;9.304;2024-03-23T07:39:12;10.50;99.90
1534;DHT22;760;48.822;9.304;2024-03-23T07:41:38;10.60;99.90
1534;DHT22;760;48.822;9.304;2024-03-23T07:44:04;10.70;99.90
1534;DHT22;760;48.822;9.304;2024-03-23T07:46:29;10.90;99.90
1534;DHT22;760;48.822;9.304;2024-03-23T07:48:55;11.00;99.90
1534;DHT22;760;48.822;9.304;2024-03-23T07:51:21;11.00;99.90
1534;DHT22;760;48.822;9.304;2024-03-23T07:53:48;11.00;99.90
1534;DHT22;760;48.822;9.304;2024-03-23T07:56:17;10.90;99.90
1534;DHT22;760;48.822;9.304;2024-03-23T07:58:44;10.80;99.90
1534;DHT22;760;48.822;9.304;2024-03-23T08:01:12;10.80;99.90
1534;DHT22;760;48.822;9.304;2024-03-23T08:03:39;10.70;99.90
1534;DHT22;760;48.822;9.304;2024-03-23T08:06:13;10.60;99.90
1534;DHT22;760;48.822;9.304;2024-03-23T08:08:40;10.60;99.90
1534;DHT22;760;48.822;9.304;2024-03-23T08:11:06;10.50;99.90
1534;DHT22;760;48.822;9.304;2024-03-23T08:13:33;10.40;99.90
1534;DHT22;760;48.822;9.304;2024-03-23T08:16:00;10.30;99.90
1534;DHT22;760;48.822;9.304;2024-03-23T08:18:26;10.30;99.90
1534;DHT22;760;48.822;9.304;2024-03-23T08:21:02;10.30;99.90
1534;DHT22;760;48.822;9.304;2024-03-23T08:23:29;10.40;99.90
1534;DHT22;760;48.822;9.304;2024-03-23T08:25:59;10.40;99.90
1534;DHT22;760;48.822;9.304;2024-03-23T08:28:25;10.50;99.90
1534;DHT22;760;48.822;9.304;2024-03-23T08:30:52;10.60;99.90
1534;DHT22;760;48.822;9.304;2024-03-23T08:33:17;10.50;99.90
1534;DHT22;760;48.822;9.304;2024-03-23T08:35:55;10.40;99.90
1534;DHT22;760;48.822;9.304;2024-03-23T08:38:24;10.20;99.90
1534;DHT22;760;48.822;9.304;2024-03-23T08:41:01;10.00;99.90
1534;DHT22;760;48.822;9.304;2024-03-23T08:43:28;10.00;99.90
1534;DHT22;760;48.822;9.304;2024-03-23T08:46:12;10.00;99.90
1534;DHT22;760;48.822;9.304;2024-03-23T08:48:45;10.00;99.90
1534;DHT22;760;48.822;9.304;2024-03-23T08:51:16;10.10;99.90
1534;DHT22;760;48.822;9.304;2024-03-23T08:53:43;10.60;99.90
1534;DHT22;760;48.822;9.304;2024-03-23T08:56:10;10.90;99.90
1534;DHT22;760;48.822;9.304;2024-03-23T08:58:37;11.20;99.90
1534;DHT22;760;48.822;9.304;2024-03-23T09:01:11;11.40;99.90
1534;DHT22;760;48.822;9.304;2024-03-23T09:03:41;11.30;99.90
1534;DHT22;760;48.822;9.304;2024-03-23T09:06:11;11.10;99.90
1534;DHT22;760;48.822;9.304;2024-03-23T09:08:37;10.80;99.90
1534;DHT22;760;48.822;9.304;2024-03-23T09:11:08;10.60;99.90
1534;DHT22;760;48.822;9.304;2024-03-23T09:13:35;10.50;99.90
1534;DHT22;760;48.822;9.304;2024-03-23T09:16:02;10.40;99.90
1534;DHT22;760;48.822;9.304;2024-03-23T09:18:27;10.20;99.90
1534;DHT22;760;48.822;9.304;2024-03-23T09:20:53;10.00;99.90
1534;DHT22;760;48.822;9.304;2024-03-23T09:23:21;9.90;99.90
1534;DHT22;760;48.822;9.304;2024-03-23T09:25:46;9.80;99.90
1534;DHT22;760;48.822;9.304;2024-03-23T09:28:12;9.80;99.90
1534;DHT22;760;48.822;9.304;2024-03-23T09:30:38;9.80;99.90
1534;DHT22;760;48.822;9.304;2024-03-23T09:33:12;10.20;99.90
1534;DHT22;760;48.822;9.304;2024-03-23T09:35:39;11.10;99.90
1534;DHT22;760;48.822;9.304;2024-03-23T09:38:05;11.60;99.90
1534;DHT22;760;48.822;9.304;2024-03-23T09:40:32;12.20;99.90
1534;DHT22;760;48.822;9.304;2024-03-23T09:42:58;12.70;99.90
1534;DHT22;760;48.822;9.304;2024-03-23T09:45:28;12.90;99.90
1534;DHT22;760;48.822;9.304;2024-03-23T09:47:57;13.30;99.90
1534;DHT22;760;48.822;9.304;2024-03-23T09:50:23;13.10;99.80
1534;DHT22;760;48.822;9.304;2024-03-23T09:52:49;13.10;99.20
1534;DHT22;760;48.822;9.304;2024-03-23T09:55:14;12.90;99.80
1534;DHT22;760;48.822;9.304;2024-03-23T09:57:41;12.60;99.90
1534;DHT22;760;48.822;9.304;2024-03-23T10:00:07;12.40;99.90
1534;DHT22;760;48.822;9.304;2024-03-23T10:02:34;12.10;99.90
1534;DHT22;760;48.822;9.304;2024-03-23T10:05:00;11.80;99.90
1534;DHT22;760;48.822;9.304;2024-03-23T10:07:26;11.60;99.90
1534;DHT22;760;48.822;9.304;2024-03-23T10:09:55;11.40;99.90
1534;DHT22;760;48.822;9.304;2024-03-23T10:12:22;11.10;99.90
1534;DHT22;760;48.822;9.304;2024-03-23T10:14:49;11.00;99.90
1534;DHT22;760;48.822;9.304;2024-03-23T10:17:22;10.80;99.90
1534;DHT22;760;48.822;9.304;2024-03-23T10:19:52;10.70;99.90
1534;DHT22;760;48.822;9.304;2024-03-23T10:22:18;10.70;99.90
1534;DHT22;760;48.822;9.304;2024-03-23T10:24:44;10.60;99.90
1534;DHT22;760;48.822;9.304;2024-03-23T10:27:15;10.90;99.90
1534;DHT22;760;48.822;9.304;2024-03-23T10:29:41;11.80;99.90
1534;DHT22;760;48.822;9.304;2024-03-23T10:32:11;12.90;99.90
1534;DHT22;760;48.822;9.304;2024-03-23T10:34:38;13.90;99.90
1534;DHT22;760;48.822;9.304;2024-03-23T10:37:05;14.30;97.80
1534;DHT22;760;48.822;9.304;2024-03-23T10:39:35;14.40;97.50
1534;DHT22;760;48.822;9.304;2024-03-23T10:42:06;14.20;96.60
1534;DHT22;760;48.822;9.304;2024-03-23T10:44:33;13.90;96.70
1534;DHT22;760;48.822;9.304;2024-03-23T10:46:59;13.50;97.20
1534;DHT22;760;48.822;9.304;2024-03-23T10:49:32;13.20;97.70
1534;DHT22;760;48.822;9.304;2024-03-23T10:52:02;12.90;97.40
1534;DHT22;760;48.822;9.304;2024-03-23T10:54:29;12.60;98.30
1534;DHT22;760;48.822;9.304;2024-03-23T10:58:13;12.20;98.00
1534;DHT22;760;48.822;9.304;2024-03-23T11:00:19;11.80;98.60
1534;DHT22;760;48.822;9.304;2024-03-23T11:02:48;11.40;99.20
1534;DHT22;760;48.822;9.304;2024-03-23T11:07:52;9.80;99.90
1534;DHT22;760;48.822;9.304;2024-03-23T11:10:29;9.10;99.90
1534;DHT22;760;48.822;9.304;2024-03-23T11:12:58;8.60;99.90
1534;DHT22;760;48.822;9.304;2024-03-23T11:15:44;8.30;99.90
1534;DHT22;760;48.822;9.304;2024-03-23T11:18:09;8.10;99.90
1534;DHT22;760;48.822;9.304;2024-03-23T11:20:35;7.90;99.90
1534;DHT22;760;48.822;9.304;2024-03-23T11:23:01;7.70;99.90
1534;DHT22;760;48.822;9.304;2024-03-23T11:25:28;7.60;99.90
1534;DHT22;760;48.822;9.304;2024-03-23T11:27:56;7.70;99.90
1534;DHT22;760;48.822;9.304;2024-03-23T11:30:26;8.00;99.90
1534;DHT22;760;48.822;9.304;2024-03-23T11:32:55;8.30;99.90
1534;DHT22;760;48.822;9.304;2024-03-23T11:35:31;8.80;99.90
1534;DHT22;760;48.822;9.304;2024-03-23T11:40:35;9.80;99.90
1534;DHT22;760;48.822;9.304;2024-03-23T11:43:03;10.10;99.90
1534;DHT22;760;48.822;9.304;2024-03-23T11:45:37;10.50;99.90
1534;DHT22;760;48.822;9.304;2024-03-23T11:50:31;11.00;99.90
1534;DHT22;760;48.822;9.304;2024-03-23T11:53:27;11.20;99.90
1534;DHT22;760;48.822;9.304;2024-03-23T11:56:16;11.40;99.90
1534;DHT22;760;48.822;9.304;2024-03-23T11:58:42;11.60;99.90
1534;DHT22;760;48.822;9.304;2024-03-23T12:01:10;11.90;99.90
1534;DHT22;760;48.822;9.304;2024-03-23T12:03:37;12.00;99.90
1534;DHT22;760;48.822;9.304;2024-03-23T12:06:03;12.00;99.90
1534;DHT22;760;48.822;9.304;2024-03-23T12:11:12;11.80;99.90
1534;DHT22;760;48.822;9.304;2024-03-23T12:13:41;11.60;99.90
1534;DHT22;760;48.822;9.304;2024-03-23T12:16:16;11.50;99.90
1534;DHT22;760;48.822;9.304;2024-03-23T12:18:43;11.20;99.90
1534;DHT22;760;48.822;9.304;2024-03-23T12:21:09;10.90;99.90
1534;DHT22;760;48.822;9.304;2024-03-23T12:23:38;10.70;99.90
1534;DHT22;760;48.822;9.304;2024-03-23T12:26:04;10.50;99.90
1534;DHT22;760;48.822;9.304;2024-03-23T12:28:29;10.40;99.90
1534;DHT22;760;48.822;9.304;2024-03-23T12:30:55;10.30;99.90
1534;DHT22;760;48.822;9.304;2024-03-23T12:33:21;10.30;99.90
1534;DHT22;760;48.822;9.304;2024-03-23T12:35:50;10.30;99.90
1534;DHT22;760;48.822;9.304;2024-03-23T12:38:15;10.30;99.90
1534;DHT22;760;48.822;9.304;2024-03-23T12:40:41;10.40;99.90
1534;DHT22;760;48.822;9.304;2024-03-23T12:43:07;10.40;99.90
1534;DHT22;760;48.822;9.304;2024-03-23T12:45:35;10.40;99.90
1534;DHT22;760;48.822;9.304;2024-03-23T12:48:01;10.50;99.90
1534;DHT22;760;48.822;9.304;2024-03-23T12:50:26;10.60;99.90
1534;DHT22;760;48.822;9.304;2024-03-23T12:52:52;10.70;99.90
1534;DHT22;760;48.822;9.304;2024-03-23T12:55:17;10.70;99.90
1534;DHT22;760;48.822;9.304;2024-03-23T12:57:43;10.70;99.90
1534;DHT22;760;48.822;9.304;2024-03-23T13:00:09;10.70;99.90
1534;DHT22;760;48.822;9.304;2024-03-23T13:02:38;10.80;99.90
1534;DHT22;760;48.822;9.304;2024-03-23T13:05:05;10.80;99.90
1534;DHT22;760;48.822;9.304;2024-03-23T13:07:31;10.90;99.90
1534;DHT22;760;48.822;9.304;2024-03-23T13:09:56;11.00;99.90
1534;DHT22;760;48.822;9.304;2024-03-23T13:12:22;11.20;99.90
1534;DHT22;760;48.822;9.304;2024-03-23T13:14:48;11.50;99.20
1534;DHT22;760;48.822;9.304;2024-03-23T13:17:14;11.60;98.40
1534;DHT22;760;48.822;9.304;2024-03-23T13:19:40;11.80;97.50
1534;DHT22;760;48.822;9.304;2024-03-23T13:22:06;11.70;97.20
1534;DHT22;760;48.822;9.304;2024-03-23T13:24:32;11.70;97.90
1534;DHT22;760;48.822;9.304;2024-03-23T13:26:58;11.70;97.50
1534;DHT22;760;48.822;9.304;2024-03-23T13:29:24;11.90;98.00
1534;DHT22;760;48.822;9.304;2024-03-23T13:31:51;12.00;97.10
1534;DHT22;760;48.822;9.304;2024-03-23T13:34:17;12.10;97.00
1534;DHT22;760;48.822;9.304;2024-03-23T13:36:46;12.20;97.10
1534;DHT22;760;48.822;9.304;2024-03-23T13:39:13;12.20;96.50
1534;DHT22;760;48.822;9.304;2024-03-23T13:41:42;12.20;96.20
1534;DHT22;760;48.822;9.304;2024-03-23T13:44:09;12.30;96.10
1534;DHT22;760;48.822;9.304;2024-03-23T13:46:36;12.40;94.30
1534;DHT22;760;48.822;9.304;2024-03-23T13:49:02;12.50;93.80
1534;DHT22;760;48.822;9.304;2024-03-23T13:51:27;12.50;93.70
1534;DHT22;760;48.822;9.304;2024-03-23T13:53:56;12.50;92.90
1534;DHT22;760;48.822;9.304;2024-03-23T13:56:23;12.50;93.90
1534;DHT22;760;48.822;9.304;2024-03-23T13:58:49;12.50;93.30
1534;DHT22;760;48.822;9.304;2024-03-23T14:01:17;12.60;93.10
1534;DHT22;760;48.822;9.304;2024-03-23T14:03:43;12.60;92.00
1534;DHT22;760;48.822;9.304;2024-03-23T14:06:10;12.60;91.40
1534;DHT22;760;48.822;9.304;2024-03-23T14:08:36;12.30;94.00
1534;DHT22;760;48.822;9.304;2024-03-23T14:11:06;11.60;96.60
1534;DHT22;760;48.822;9.304;2024-03-23T14:13:32;10.70;99.90
1534;DHT22;760;48.822;9.304;2024-03-23T14:15:58;10.00;99.90
1534;DHT22;760;48.822;9.304;2024-03-23T14:18:24;9.40;99.90
1534;DHT22;760;48.822;9.304;2024-03-23T14:20:50;8.90;99.90
1534;DHT22;760;48.822;9.304;2024-03-23T14:23:16;8.50;99.90
1534;DHT22;760;48.822;9.304;2024-03-23T14:25:42;8.10;99.90
1534;DHT22;760;48.822;9.304;2024-03-23T14:28:08;7.70;99.90
1534;DHT22;760;48.822;9.304;2024-03-23T14:30:43;7.40;99.90
1534;DHT22;760;48.822;9.304;2024-03-23T14:33:09;7.00;99.90
1534;DHT22;760;48.822;9.304;2024-03-23T14:35:35;6.80;99.90
1534;DHT22;760;48.822;9.304;2024-03-23T14:38:00;6.60;99.90
1534;DHT22;760;48.822;9.304;2024-03-23T14:40:26;6.50;99.90
1534;DHT22;760;48.822;9.304;2024-03-23T14:42:55;6.60;99.90
1534;DHT22;760;48.822;9.304;2024-03-23T14:45:21;6.80;99.90
1534;DHT22;760;48.822;9.304;2024-03-23T14:47:49;7.10;99.90
1534;DHT22;760;48.822;9.304;2024-03-23T14:50:14;7.50;99.90
1534;DHT22;760;48.822;9.304;2024-03-23T14:52:47;7.70;99.90
1534;DHT22;760;48.822;9.304;2024-03-23T14:55:13;7.90;99.90
1534;DHT22;760;48.822;9.304;2024-03-23T14:57:39;8.00;99.90
1534;DHT22;760;48.822;9.304;2024-03-23T15:00:09;8.00;99.90
1534;DHT22;760;48.822;9.304;2024-03-23T15:02:38;8.00;99.90
1534;DHT22;760;48.822;9.304;2024-03-23T15:05:05;8.10;99.90
1534;DHT22;760;48.822;9.304;2024-03-23T15:07:31;8.00;99.90
1534;DHT22;760;48.822;9.304;2024-03-23T15:09:57;8.00;99.90
1534;DHT22;760;48.822;9.304;2024-03-23T15:12:22;8.00;99.90
1534;DHT22;760;48.822;9.304;2024-03-23T15:14:48;8.00;99.90
1534;DHT22;760;48.822;9.304;2024-03-23T15:17:14;8.20;99.90
1534;DHT22;760;48.822;9.304;2024-03-23T15:19:39;8.40;99.90
1534;DHT22;760;48.822;9.304;2024-03-23T15:22:07;8.60;99.90
1534;DHT22;760;48.822;9.304;2024-03-23T15:24:34;8.90;99.90
1534;DHT22;760;48.822;9.304;2024-03-23T15:27:01;9.10;99.90
1534;DHT22;760;48.822;9.304;2024-03-23T15:29:27;9.20;99.90
1534;DHT22;760;48.822;9.304;2024-03-23T15:31:53;9.20;99.90
1534;DHT22;760;48.822;9.304;2024-03-23T15:34:21;9.10;99.90
1534;DHT22;760;48.822;9.304;2024-03-23T15:36:48;9.00;99.90
1534;DHT22;760;48.822;9.304;2024-03-23T15:39:18;8.90;99.90
1534;DHT22;760;48.822;9.304;2024-03-23T15:41:45;8.90;99.90
1534;DHT22;760;48.822;9.304;2024-03-23T15:44:11;8.90;99.90
1534;DHT22;760;48.822;9.304;2024-03-23T15:46:36;8.80;99.90
1534;DHT22;760;48.822;9.304;2024-03-23T15:49:02;8.70;99.90
1534;DHT22;760;48.822;9.304;2024-03-23T15:51:28;8.70;99.90
1534;DHT22;760;48.822;9.304;2024-03-23T15:53:58;8.50;99.90
1534;DHT22;760;48.822;9.304;2024-03-23T15:56:24;8.40;99.90
1534;DHT22;760;48.822;9.304;2024-03-23T15:58:50;8.40;99.90
1534;DHT22;760;48.822;9.304;2024-03-23T16:01:15;8.50;99.90
1534;DHT22;760;48.822;9.304;2024-03-23T16:03:41;8.50;99.90
1534;DHT22;760;48.822;9.304;2024-03-23T16:06:07;8.60;99.90
1534;DHT22;760;48.822;9.304;2024-03-23T16:08:33;8.70;99.90
1534;DHT22;760;48.822;9.304;2024-03-23T16:11:03;8.80;99.90
1534;DHT22;760;48.822;9.304;2024-03-23T16:13:30;8.70;99.90
1534;DHT22;760;48.822;9.304;2024-03-23T16:15:57;8.80;99.90
1534;DHT22;760;48.822;9.304;2024-03-23T16:18:23;8.70;99.90
1534;DHT22;760;48.822;9.304;2024-03-23T16:20:55;8.70;99.90
1534;DHT22;760;48.822;9.304;2024-03-23T16:23:22;8.60;99.90
1534;DHT22;760;48.822;9.304;2024-03-23T16:25:51;8.60;99.90
1534;DHT22;760;48.822;9.304;2024-03-23T16:31:01;8.50;99.90
1534;DHT22;760;48.822;9.304;2024-03-23T16:33:27;8.50;99.90
1534;DHT22;760;48.822;9.304;2024-03-23T16:35:57;8.50;99.90
1534;DHT22;760;48.822;9.304;2024-03-23T16:38:23;8.50;99.90
1534;DHT22;760;48.822;9.304;2024-03-23T16:40:59;8.50;99.90
1534;DHT22;760;48.822;9.304;2024-03-23T16:43:26;8.50;99.90
1534;DHT22;760;48.822;9.304;2024-03-23T16:48:19;8.40;99.90
1534;DHT22;760;48.822;9.304;2024-03-23T16:50:44;8.40;99.90
1534;DHT22;760;48.822;9.304;2024-03-23T16:53:10;8.30;99.90
1534;DHT22;760;48.822;9.304;2024-03-23T16:55:36;8.30;99.90
1534;DHT22;760;48.822;9.304;2024-03-23T16:58:02;8.30;99.90
1534;DHT22;760;48.822;9.304;2024-03-23T17:00:27;8.20;99.90
1534;DHT22;760;48.822;9.304;2024-03-23T17:02:53;8.00;99.90
1534;DHT22;760;48.822;9.304;2024-03-23T17:05:18;7.80;99.90
1534;DHT22;760;48.822;9.304;2024-03-23T17:07:48;7.70;99.90
1534;DHT22;760;48.822;9.304;2024-03-23T17:10:14;7.60;99.90
1534;DHT22;760;48.822;9.304;2024-03-23T17:12:39;7.50;99.90
1534;DHT22;760;48.822;9.304;2024-03-23T17:15:05;7.50;99.90
1534;DHT22;760;48.822;9.304;2024-03-23T17:17:31;7.40;99.90
1534;DHT22;760;48.822;9.304;2024-03-23T17:20:01;7.30;99.90
1534;DHT22;760;48.822;9.304;2024-03-23T17:22:28;7.30;99.90
1534;DHT22;760;48.822;9.304;2024-03-23T17:24:53;7.20;99.90
1534;DHT22;760;48.822;9.304;2024-03-23T17:27:19;7.20;99.90
1534;DHT22;760;48.822;9.304;2024-03-23T17:29:44;7.20;99.90
1534;DHT22;760;48.822;9.304;2024-03-23T17:32:13;7.10;99.90
1534;DHT22;760;48.822;9.304;2024-03-23T17:34:39;7.10;99.90
1534;DHT22;760;48.822;9.304;2024-03-23T17:37:04;7.10;99.90
1534;DHT22;760;48.822;9.304;2024-03-23T17:39:30;7.20;99.90
1534;DHT22;760;48.822;9.304;2024-03-23T17:41:59;7.20;99.90
1534;DHT22;760;48.822;9.304;2024-03-23T17:44:24;7.20;99.90
1534;DHT22;760;48.822;9.304;2024-03-23T17:46:50;7.20;99.90
1534;DHT22;760;48.822;9.304;2024-03-23T17:49:16;7.20;99.90
1534;DHT22;760;48.822;9.304;2024-03-23T17:51:44;7.20;99.90
1534;DHT22;760;48.822;9.304;2024-03-23T17:54:10;7.10;99.90
1534;DHT22;760;48.822;9.304;2024-03-23T17:56:38;7.00;99.90
1534;DHT22;760;48.822;9.304;2024-03-23T17:59:04;7.00;99.90
1534;DHT22;760;48.822;9.304;2024-03-23T18:01:29;6.90;99.90
1534;DHT22;760;48.822;9.304;2024-03-23T18:03:55;6.50;99.90
1534;DHT22;760;48.822;9.304;2024-03-23T18:06:21;6.20;99.90
1534;DHT22;760;48.822;9.304;2024-03-23T18:08:47;5.80;99.90
1534;DHT22;760;48.822;9.304;2024-03-23T18:11:13;5.60;99.90
1534;DHT22;760;48.822;9.304;2024-03-23T18:13:39;5.40;99.90
1534;DHT22;760;48.822;9.304;2024-03-23T18:16:05;5.20;99.90
1534;DHT22;760;48.822;9.304;2024-03-23T18:18:31;5.20;99.90
1534;DHT22;760;48.822;9.304;2024-03-23T18:21:01;5.10;99.90
1534;DHT22;760;48.822;9.304;2024-03-23T18:23:26;5.00;99.90
1534;DHT22;760;48.822;9.304;2024-03-23T18:25:55;5.00;99.90
1534;DHT22;760;48.822;9.304;2024-03-23T18:28:24;5.00;99.90
1534;DHT22;760;48.822;9.304;2024-03-23T18:31:00;5.00;99.90
1534;DHT22;760;48.822;9.304;2024-03-23T18:33:28;5.00;99.90
1534;DHT22;760;48.822;9.304;2024-03-23T18:35:56;4.90;99.90
1534;DHT22;760;48.822;9.304;2024-03-23T18:38:22;5.00;99.90
1534;DHT22;760;48.822;9.304;2024-03-23T18:40:48;5.00;99.90
1534;DHT22;760;48.822;9.304;2024-03-23T18:43:14;5.00;99.90
1534;DHT22;760;48.822;9.304;2024-03-23T18:45:47;5.00;99.90
1534;DHT22;760;48.822;9.304;2024-03-23T18:48:13;5.00;99.90
1534;DHT22;760;48.822;9.304;2024-03-23T18:50:39;5.10;99.90
1534;DHT22;760;48.822;9.304;2024-03-23T18:53:04;5.10;99.90
1534;DHT22;760;48.822;9.304;2024-03-23T18:55:30;5.10;99.90
1534;DHT22;760;48.822;9.304;2024-03-23T18:57:55;5.10;99.90
1534;DHT22;760;48.822;9.304;2024-03-23T19:00:24;5.20;99.90
1534;DHT22;760;48.822;9.304;2024-03-23T19:02:50;5.10;99.90
1534;DHT22;760;48.822;9.304;2024-03-23T19:05:15;5.10;99.90
1534;DHT22;760;48.822;9.304;2024-03-23T19:07:41;5.10;99.90
1534;DHT22;760;48.822;9.304;2024-03-23T19:10:07;5.10;99.90
1534;DHT22;760;48.822;9.304;2024-03-23T19:12:33;5.10;99.90
1534;DHT22;760;48.822;9.304;2024-03-23T19:14:58;5.10;99.90
1534;DHT22;760;48.822;9.304;2024-03-23T19:17:25;5.10;99.90
1534;DHT22;760;48.822;9.304;2024-03-23T19:19:51;5.10;99.90
1534;DHT22;760;48.822;9.304;2024-03-23T19:22:17;5.10;99.90
1534;DHT22;760;48.822;9.304;2024-03-23T19:24:43;5.00;99.90
1534;DHT22;760;48.822;9.304;2024-03-23T19:27:08;5.00;99.90
1534;DHT22;760;48.822;9.304;2024-03-23T19:29:34;5.10;99.90
1534;DHT22;760;48.822;9.304;2024-03-23T19:32:00;5.10;99.90
1534;DHT22;760;48.822;9.304;2024-03-23T19:34:25;5.10;99.90
1534;DHT22;760;48.822;9.304;2024-03-23T19:36:51;5.10;99.90
1534;DHT22;760;48.822;9.304;2024-03-23T19:39:17;5.10;99.90
1534;DHT22;760;48.822;9.304;2024-03-23T19:41:42;5.10;99.90
1534;DHT22;760;48.822;9.304;2024-03-23T19:44:10;5.00;99.90
1534;DHT22;760;48.822;9.304;2024-03-23T19:46:36;5.00;99.90
1534;DHT22;760;48.822;9.304;2024-03-23T19:49:01;4.90;99.90
1534;DHT22;760;48.822;9.304;2024-03-23T19:51:27;4.90;99.90
1534;DHT22;760;48.822;9.304;2024-03-23T19:53:53;4.80;99.90
1534;DHT22;760;48.822;9.304;2024-03-23T19:56:19;4.80;99.90
1534;DHT22;760;48.822;9.304;2024-03-23T19:58:44;4.80;99.90
1534;DHT22;760;48.822;9.304;2024-03-23T20:01:15;4.70;99.90
1534;DHT22;760;48.822;9.304;2024-03-23T20:03:50;4.60;99.90
1534;DHT22;760;48.822;9.304;2024-03-23T20:06:17;4.60;99.90
1534;DHT22;760;48.822;9.304;2024-03-23T20:08:44;4.50;99.90
1534;DHT22;760;48.822;9.304;2024-03-23T20:11:10;4.50;99.90
1534;DHT22;760;48.822;9.304;2024-03-23T20:13:36;4.40;99.90
1534;DHT22;760;48.822;9.304;2024-03-23T20:16:02;4.40;99.90
1534;DHT22;760;48.822;9.304;2024-03-23T20:18:28;4.40;99.90
1534;DHT22;760;48.822;9.304;2024-03-23T20:20:55;4.30;99.90
1534;DHT22;760;48.822;9.304;2024-03-23T20:23:23;4.30;99.90
1534;DHT22;760;48.822;9.304;2024-03-23T20:25:59;4.30;99.90
1534;DHT22;760;48.822;9.304;2024-03-23T20:28:26;4.30;99.90
1534;DHT22;760;48.822;9.304;2024-03-23T20:31:05;4.30;99.90
1534;DHT22;760;48.822;9.304;2024-03-23T20:33:33;4.30;99.90
1534;DHT22;760;48.822;9.304;2024-03-23T20:36:01;4.20;99.90
1534;DHT22;760;48.822;9.304;2024-03-23T20:38:27;4.20;99.90
1534;DHT22;760;48.822;9.304;2024-03-23T20:40:54;4.30;99.90
1534;DHT22;760;48.822;9.304;2024-03-23T20:43:20;4.30;99.90
1534;DHT22;760;48.822;9.304;2024-03-23T20:45:45;4.30;99.90
1534;DHT22;760;48.822;9.304;2024-03-23T20:48:11;4.40;99.90
1534;DHT22;760;48.822;9.304;2024-03-23T20:50:38;4.50;99.90
1534;DHT22;760;48.822;9.304;2024-03-23T20:53:04;4.50;99.90
1534;DHT22;760;48.822;9.304;2024-03-23T20:55:30;4.50;99.90
1534;DHT22;760;48.822;9.304;2024-03-23T20:57:56;4.50;99.90
1534;DHT22;760;48.822;9.304;2024-03-23T21:00:21;4.50;99.90
1534;DHT22;760;48.822;9.304;2024-03-23T21:02:47;4.50;99.90
1534;DHT22;760;48.822;9.304;2024-03-23T21:05:12;4.50;99.90
1534;DHT22;760;48.822;9.304;2024-03-23T21:07:38;4.50;99.90
1534;DHT22;760;48.822;9.304;2024-03-23T21:10:06;4.50;99.90
1534;DHT22;760;48.822;9.304;2024-03-23T21:12:31;4.50;99.90
1534;DHT22;760;48.822;9.304;2024-03-23T21:14:57;4.40;99.90
1534;DHT22;760;48.822;9.304;2024-03-23T21:17:22;4.40;99.90
1534;DHT22;760;48.822;9.304;2024-03-23T21:19:49;4.40;99.90
1534;DHT22;760;48.822;9.304;2024-03-23T21:22:15;4.40;99.90
1534;DHT22;760;48.822;9.304;2024-03-23T21:24:40;4.40;99.90
1534;DHT22;760;48.822;9.304;2024-03-23T21:27:08;4.40;99.90
1534;DHT22;760;48.822;9.304;2024-03-23T21:29:34;4.40;99.90
1534;DHT22;760;48.822;9.304;2024-03-23T21:32:00;4.40;99.90
1534;DHT22;760;48.822;9.304;2024-03-23T21:34:25;4.40;99.90
1534;DHT22;760;48.822;9.304;2024-03-23T21:36:52;4.40;99.90
1534;DHT22;760;48.822;9.304;2024-03-23T21:39:18;4.40;99.90
1534;DHT22;760;48.822;9.304;2024-03-23T21:41:46;4.30;99.90
1534;DHT22;760;48.822;9.304;2024-03-23T21:44:13;4.40;99.90
1534;DHT22;760;48.822;9.304;2024-03-23T21:46:39;4.40;99.90